CDT,Max TemperatureF,Mean TemperatureF,Min TemperatureF,Max Dew PointF,MeanDew PointF,Min DewpointF,Max Humidity, Mean Humidity, Min Humidity, Max Sea Level PressureIn, Mean Sea Level PressureIn, Min Sea Level PressureIn, Max VisibilityMiles, Mean VisibilityMiles, Min VisibilityMiles, Max Wind SpeedMPH, Mean Wind SpeedMPH, Max Gust SpeedMPH,PrecipitationIn, CloudCover, Events, WindDirDegrees
2013-3-1,30,27,24,20,18,15,80,71,60,30.41,30.32,30.25,10,8,2,25,14,24,0.00,8,Snow,347
2013-3-2,33,22,12,24,17,10,88,73,54,30.39,30.29,30.12,10,6,4,9,5,,0.00,5,,189
2013-3-3,39,32,24,28,24,21,86,74,63,30.09,29.91,29.75,8,4,2,21,13,24,0.00,2,,137
2013-3-4,39,34,30,30,27,19,89,74,59,30.04,29.86,29.70,10,5,1,20,10,25,0.00,6,Snow,349
2013-3-5,30,27,24,22,18,16,72,67,59,30.43,30.21,30.06,10,8,2,34,23,43,0.00,7,Snow,315
2013-3-6,37,29,21,22,19,15,81,67,51,30.47,30.39,30.29,10,9,6,16,9,,0.00,3,,86
2013-3-7,48,34,21,29,24,18,85,68,46,30.30,30.22,30.12,8,6,2,21,14,26,0.04,0,,136
2013-3-8,55,40,26,37,31,22,87,73,49,30.22,30.07,29.91,7,4,2,22,10,26,0.14,3,Rain,130
2013-3-9,51,43,35,48,40,32,93,90,83,29.90,29.73,29.57,7,2,1,31,14,38,0.52,8,Rain-Snow-Thunderstorm,115
2013-3-10,34,28,23,31,26,18,93,88,74,29.99,29.87,29.74,8,1,0,38,27,46,0.32,8,Fog-Rain-Snow,342
2013-3-11,30,23,16,19,17,11,82,75,61,30.04,29.95,29.91,10,8,2,22,16,,0.00,4,Snow,303
2013-3-12,32,26,19,24,21,15,88,74,66,30.36,30.19,30.05,10,7,1,29,15,37,0.00,5,Snow,302
2013-3-13,33,24,14,25,17,10,84,77,69,30.49,30.39,30.27,10,7,4,12,8,,0.00,1,,177
2013-3-14,50,36,23,37,30,18,93,82,59,30.22,30.11,30.05,7,4,0,10,6,,0.00,0,Fog,166
2013-3-15,48,40,32,41,34,30,93,85,69,30.03,29.84,29.74,5,2,1,16,7,,0.00,1,,47
2013-3-16,37,32,28,36,26,21,93,77,60,30.22,30.07,29.88,10,7,2,23,17,29,0.00,8,,356
2013-3-17,45,34,24,34,26,16,93,74,56,30.18,29.95,29.78,10,8,2,18,12,,0.03,5,Rain,108
2013-3-18,36,31,25,34,25,15,100,75,44,30.08,29.84,29.69,10,6,2,34,18,41,0.06,5,Rain-Snow,265
2013-3-19,48,34,19,28,18,11,74,59,37,30.39,30.20,30.12,10,10,10,22,9,30,0.00,1,,334
2013-3-20,35,25,15,16,9,5,81,54,33,30.45,30.33,30.15,10,10,10,22,16,29,0.00,0,,331
2013-3-21,33,26,19,21,14,11,71,60,43,30.13,30.05,29.96,10,10,10,10,7,,0.00,6,,106
2013-3-22,35,30,25,25,20,17,75,64,52,30.07,30.04,30.02,10,8,7,12,6,,0.00,8,,97
2013-3-23,37,32,28,28,26,22,93,78,56,30.15,30.10,30.07,8,3,0,18,10,,0.00,8,Fog-Snow,19
2013-3-24,30,28,26,27,22,19,89,78,64,30.12,30.08,30.04,8,3,1,23,18,30,0.01,8,Snow,342
2013-3-25,32,28,23,25,21,17,86,76,64,30.37,30.22,30.09,10,5,1,24,18,29,0.00,8,Snow,326
2013-3-26,41,29,19,23,18,12,82,65,43,30.41,30.34,30.26,10,10,9,10,7,,0.00,1,,309
2013-3-27,53,37,21,32,25,18,85,64,38,30.30,30.26,30.20,10,7,5,16,7,20,0.00,1,,136
2013-3-28,59,42,24,34,28,23,93,72,34,30.28,30.24,30.16,10,6,0,10,3,,0.00,1,Fog,121
2013-3-29,70,48,27,38,31,25,96,61,22,30.25,30.16,30.03,10,6,1,17,4,21,0.00,1,Rain,161
2013-3-30,66,56,46,51,42,34,89,66,33,30.04,29.94,29.89,10,8,2,18,9,23,0.01,4,Rain,317
2013-3-31,57,44,30,39,30,18,93,71,23,30.18,30.03,29.94,10,6,0,25,13,33,0.01,4,Fog-Rain-Snow,337